Time;durP1;ratioP1;P1;durP2;ratioP2;P2;SDS_P1;SDS_P2;PMS_P1;PMS_P2;Temp;Humidity;BMP_temperature;BMP_pressure;BME280_temperature;BME280_humidity;BME280_pressure;Samples;Min_cycle;Max_cycle;Signal;HPM_P1;HPM_P2
2023/07/08 00:02:00;;;;;;;3.72;2.35;;;26.00;76.40;;;;;;10984876;32;20297;-71
2023/07/08 00:08:02;;;;;;;4.95;2.45;;;26.00;77.10;;;;;;10971156;32;20037;-71
2023/07/08 00:14:15;;;;;;;4.43;2.35;;;26.00;77.10;;;;;;10984289;32;20045;-71
2023/07/08 00:20:32;;;;;;;3.35;2.22;;;25.90;77.10;;;;;;10967976;32;20030;-71
2023/07/08 00:26:34;;;;;;;6.20;3.13;;;25.80;77.20;;;;;;10984127;32;20011;-71
2023/07/08 00:32:41;;;;;;;5.60;2.62;;;25.80;77.40;;;;;;10983760;32;20030;-71
2023/07/08 00:38:45;;;;;;;5.30;3.12;;;25.70;77.50;;;;;;10980680;32;20041;-71
2023/07/08 00:44:48;;;;;;;4.05;2.72;;;25.60;77.70;;;;;;10969964;32;20096;-71
2023/07/08 00:50:51;;;;;;;6.25;3.08;;;25.40;77.70;;;;;;10983088;32;20018;-72
2023/07/08 00:57:01;;;;;;;4.72;2.67;;;25.30;77.90;;;;;;10982739;32;20353;-72
2023/07/08 01:03:03;;;;;;;5.07;3.03;;;25.30;77.90;;;;;;10982746;32;20401;-72
2023/07/08 01:09:08;;;;;;;5.18;2.67;;;25.30;77.80;;;;;;10982386;32;20076;-72
2023/07/08 01:15:11;;;;;;;4.95;3.25;;;25.30;78.20;;;;;;10982408;32;20022;-72
2023/07/08 01:21:33;;;;;;;3.55;2.45;;;25.30;78.20;;;;;;10980503;32;20053;-72
2023/07/08 01:27:40;;;;;;;6.53;3.62;;;25.30;78.00;;;;;;10968363;32;20061;-72
2023/07/08 01:33:42;;;;;;;5.32;3.20;;;25.30;78.00;;;;;;10967070;32;20038;-72
2023/07/08 01:39:44;;;;;;;6.05;3.87;;;25.20;78.00;;;;;;10981471;32;20026;-72
2023/07/08 01:45:48;;;;;;;9.05;3.55;;;25.10;78.20;;;;;;10981197;32;20058;-72
2023/07/08 01:51:51;;;;;;;7.80;3.53;;;25.00;78.10;;;;;;10980975;32;20274;-72
2023/07/08 01:57:53;;;;;;;9.18;3.03;;;24.90;78.30;;;;;;10980712;32;20404;-72
2023/07/08 02:03:55;;;;;;;6.82;3.37;;;24.80;78.40;;;;;;10980561;32;20018;-72
2023/07/08 02:09:57;;;;;;;7.53;3.60;;;24.80;78.20;;;;;;10980982;32;20054;-71
2023/07/08 02:15:59;;;;;;;9.80;4.22;;;24.80;78.30;;;;;;10981495;32;20023;-71
2023/07/08 02:22:01;;;;;;;4.32;2.83;;;24.70;78.40;;;;;;10980712;32;20333;-71
2023/07/08 02:28:04;;;;;;;4.40;2.58;;;24.80;78.20;;;;;;10961933;32;20057;-71
2023/07/08 02:34:09;;;;;;;5.07;3.10;;;24.60;78.40;;;;;;10966086;32;20066;-71
2023/07/08 02:40:18;;;;;;;6.68;2.95;;;24.50;78.40;;;;;;10979619;32;20027;-71
2023/07/08 02:46:21;;;;;;;3.80;2.10;;;24.40;78.90;;;;;;10965849;32;20054;-71
2023/07/08 02:52:23;;;;;;;5.47;3.22;;;24.40;79.10;;;;;;10980650;32;20100;-71
2023/07/08 02:58:25;;;;;;;6.40;4.00;;;24.40;79.20;;;;;;10979904;32;20065;-71
2023/07/08 03:04:26;;;;;;;7.37;3.83;;;24.40;79.10;;;;;;10967147;32;20387;-71
2023/07/08 03:10:28;;;;;;;2.87;1.77;;;24.30;78.80;;;;;;10980820;32;20049;-71
2023/07/08 03:16:31;;;;;;;3.83;2.33;;;24.30;78.70;;;;;;10981383;32;20018;-71
2023/07/08 03:22:33;;;;;;;5.57;3.67;;;24.20;79.00;;;;;;10972925;32;20019;-71
2023/07/08 03:28:35;;;;;;;6.45;4.15;;;24.20;79.00;;;;;;10972126;32;20030;-71
2023/07/08 03:34:37;;;;;;;6.60;3.28;;;24.20;78.60;;;;;;10987318;32;20085;-71
2023/07/08 03:40:40;;;;;;;6.80;3.30;;;24.30;78.70;;;;;;10986491;32;20416;-71
2023/07/08 03:46:49;;;;;;;7.18;4.53;;;24.30;79.20;;;;;;10985599;32;20027;-71
2023/07/08 03:52:53;;;;;;;5.37;2.85;;;24.20;79.90;;;;;;10986470;32;20333;-71
2023/07/08 03:58:56;;;;;;;5.37;3.12;;;24.20;79.80;;;;;;10985839;32;20035;-71
2023/07/08 04:04:58;;;;;;;5.72;4.22;;;24.10;80.70;;;;;;10970914;32;20026;-71
2023/07/08 04:11:00;;;;;;;6.72;3.62;;;24.00;81.50;;;;;;10985905;32;20027;-71
2023/07/08 04:17:02;;;;;;;7.85;4.55;;;24.00;81.90;;;;;;10985790;32;20015;-71
2023/07/08 04:23:04;;;;;;;6.03;3.53;;;24.10;81.30;;;;;;10984315;32;20019;-71
2023/07/08 04:29:21;;;;;;;6.72;4.65;;;24.20;80.90;;;;;;10983631;32;20026;-71
2023/07/08 04:35:23;;;;;;;5.95;4.55;;;24.30;80.80;;;;;;10984980;32;20041;-71
2023/07/08 04:41:31;;;;;;;5.93;3.33;;;24.30;80.60;;;;;;10984307;32;20018;-71
2023/07/08 04:47:51;;;;;;;6.07;3.72;;;24.30;80.50;;;;;;10983440;32;20049;-71
2023/07/08 04:53:53;;;;;;;7.15;4.43;;;24.40;80.90;;;;;;10984308;32;20022;-71
2023/07/08 04:59:55;;;;;;;6.25;3.72;;;24.40;81.50;;;;;;10982808;32;20026;-71
2023/07/08 05:05:57;;;;;;;5.90;3.80;;;24.40;82.10;;;;;;10983306;32;20050;-71
2023/07/08 05:11:59;;;;;;;3.17;1.73;;;24.40;82.00;;;;;;10968918;32;20023;-71
2023/07/08 05:18:01;;;;;;;7.50;4.05;;;24.50;82.20;;;;;;10982344;32;20014;-73
2023/07/08 05:24:04;;;;;;;5.05;2.67;;;24.60;82.30;;;;;;10982032;32;20015;-72
2023/07/08 05:30:08;;;;;;;7.22;4.00;;;24.70;82.50;;;;;;10981954;32;20019;-73
2023/07/08 05:36:10;;;;;;;4.82;2.95;;;24.80;82.40;;;;;;10979398;32;20027;-72
2023/07/08 05:42:12;;;;;;;10.27;3.10;;;24.80;82.40;;;;;;10982617;32;20014;-72
2023/07/08 05:48:14;;;;;;;6.93;3.67;;;24.90;82.10;;;;;;10981742;32;20337;-72
2023/07/08 05:54:16;;;;;;;7.00;3.20;;;25.10;82.10;;;;;;10980394;32;20096;-72
2023/07/08 06:00:18;;;;;;;7.53;3.80;;;25.10;82.20;;;;;;10981369;32;20081;-73
2023/07/08 06:06:20;;;;;;;3.00;2.22;;;25.30;82.10;;;;;;10962321;32;20334;-71
2023/07/08 06:12:22;;;;;;;3.53;2.05;;;25.50;82.00;;;;;;10980324;32;20027;-72
2023/07/08 06:18:24;;;;;;;5.10;3.15;;;25.70;81.70;;;;;;10980025;32;20019;-73
2023/07/08 06:24:26;;;;;;;6.75;3.45;;;25.80;81.50;;;;;;10975806;32;20027;-72
2023/07/08 06:30:28;;;;;;;7.87;3.83;;;25.90;81.70;;;;;;10976425;32;20022;-71
2023/07/08 06:36:31;;;;;;;4.07;2.42;;;26.00;81.60;;;;;;10979691;32;20011;-71
2023/07/08 06:42:34;;;;;;;3.90;2.17;;;26.10;81.20;;;;;;10979591;32;20018;-71
2023/07/08 06:48:37;;;;;;;5.15;2.35;;;26.20;81.00;;;;;;10977711;32;20053;-72
2023/07/08 06:54:39;;;;;;;7.32;2.97;;;26.20;80.80;;;;;;10991271;32;20040;-72
2023/07/08 07:00:43;;;;;;;5.70;2.72;;;26.30;80.80;;;;;;10991980;32;20026;-72
2023/07/08 07:06:45;;;;;;;4.07;2.80;;;26.40;80.70;;;;;;10991881;32;20408;-73
2023/07/08 07:12:47;;;;;;;6.10;3.10;;;26.40;80.40;;;;;;10991763;32;20058;-72
2023/07/08 07:18:51;;;;;;;7.32;3.33;;;26.50;80.40;;;;;;10991833;32;20164;-72
2023/07/08 07:24:53;;;;;;;4.45;2.83;;;26.70;79.40;;;;;;10991482;32;20037;-73
2023/07/08 07:30:59;;;;;;;4.00;2.25;;;26.80;79.50;;;;;;10530285;27;11978015;-72
2023/07/08 07:37:01;;;;;;;5.07;3.25;;;26.90;79.50;;;;;;10874778;32;20032;-72
2023/07/08 07:43:03;;;;;;;6.60;3.40;;;27.00;79.10;;;;;;10872642;32;20110;-73
2023/07/08 07:49:05;;;;;;;4.85;2.37;;;27.20;79.20;;;;;;10862596;32;20050;-72
2023/07/08 07:55:08;;;;;;;7.22;3.60;;;27.30;78.80;;;;;;10912569;32;20019;-72
2023/07/08 08:01:10;;;;;;;7.12;2.95;;;27.30;78.10;;;;;;10951529;32;20020;-73
2023/07/08 08:07:12;;;;;;;5.53;3.17;;;27.30;77.40;;;;;;10934339;32;20019;-73
2023/07/08 08:13:14;;;;;;;5.70;3.85;;;27.40;77.60;;;;;;10933522;32;20019;-73
2023/07/08 08:19:16;;;;;;;6.70;3.87;;;27.50;76.60;;;;;;10945964;32;20077;-73
2023/07/08 08:25:20;;;;;;;6.90;3.70;;;27.50;76.10;;;;;;10946562;32;20011;-73
2023/07/08 08:31:22;;;;;;;5.80;3.33;;;27.60;75.70;;;;;;10919851;32;20034;-73
2023/07/08 08:37:24;;;;;;;4.93;3.17;;;27.80;75.00;;;;;;10942201;32;20023;-73
2023/07/08 08:43:36;;;;;;;5.43;2.75;;;27.80;74.90;;;;;;10932524;32;20046;-73
2023/07/08 08:49:44;;;;;;;6.50;2.65;;;27.90;74.20;;;;;;10945688;32;20019;-73
2023/07/08 08:56:19;;;;;;;4.37;2.35;;;28.10;74.00;;;;;;10931403;32;20081;-72
2023/07/08 09:02:37;;;;;;;6.72;3.78;;;28.30;73.00;;;;;;10830127;32;20043;-73
2023/07/08 09:08:40;;;;;;;5.57;3.08;;;28.40;71.50;;;;;;10828949;32;20338;-73
2023/07/08 09:14:42;;;;;;;6.68;4.10;;;28.50;70.50;;;;;;10824719;32;20058;-73
2023/07/08 09:20:44;;;;;;;5.68;3.42;;;28.60;70.10;;;;;;10828318;32;20016;-73
2023/07/08 09:26:48;;;;;;;5.12;3.17;;;28.80;69.50;;;;;;10829134;32;20055;-73
2023/07/08 09:32:51;;;;;;;6.53;3.03;;;28.90;68.40;;;;;;10825232;32;20331;-73
2023/07/08 09:38:53;;;;;;;6.78;3.62;;;28.80;68.10;;;;;;10911359;32;20019;-73
2023/07/08 09:45:02;;;;;;;7.68;4.03;;;28.80;67.40;;;;;;10943629;32;20037;-73
2023/07/08 09:51:06;;;;;;;6.07;3.20;;;29.00;66.60;;;;;;10943367;32;20046;-73
2023/07/08 09:57:26;;;;;;;4.95;3.60;;;28.90;66.30;;;;;;10929221;32;20389;-73
2023/07/08 10:03:32;;;;;;;5.03;2.83;;;29.00;65.80;;;;;;10929481;32;20344;-73
2023/07/08 10:09:35;;;;;;;5.07;2.90;;;29.20;65.00;;;;;;10942197;32;20030;-71
2023/07/08 10:15:41;;;;;;;8.27;4.85;;;29.30;64.00;;;;;;10938499;32;20054;-73
2023/07/08 10:22:01;;;;;;;5.87;3.20;;;29.30;63.30;;;;;;10927193;32;20034;-72
2023/07/08 10:28:12;;;;;;;5.82;2.87;;;29.50;63.60;;;;;;10942558;32;20023;-72
2023/07/08 10:34:27;;;;;;;15.60;4.93;;;29.70;63.10;;;;;;10942476;32;20011;-70
2023/07/08 10:40:47;;;;;;;6.40;3.97;;;29.80;62.20;;;;;;10929142;32;20041;-73
2023/07/08 10:47:20;;;;;;;5.53;3.33;;;29.80;61.20;;;;;;10928656;32;20041;-73
2023/07/08 10:53:35;;;;;;;5.68;3.47;;;30.00;61.50;;;;;;10937651;32;20023;-73
2023/07/08 10:59:58;;;;;;;8.38;4.72;;;30.10;59.40;;;;;;10928378;32;20410;-73
2023/07/08 11:06:24;;;;;;;6.20;3.85;;;30.20;59.90;;;;;;10941733;32;20345;-73
2023/07/08 11:12:32;;;;;;;8.13;4.85;;;30.30;60.10;;;;;;10937328;32;20038;-73
2023/07/08 11:19:03;;;;;;;7.32;3.85;;;30.40;58.70;;;;;;10941345;32;20432;-73
2023/07/08 11:25:14;;;;;;;5.93;2.97;;;30.70;59.20;;;;;;10925305;32;20011;-73
2023/07/08 11:31:16;;;;;;;5.70;2.65;;;31.10;58.70;;;;;;10940974;32;20046;-73
2023/07/08 11:37:23;;;;;;;6.35;4.15;;;31.30;58.40;;;;;;10943586;32;20042;-72
2023/07/08 11:43:28;;;;;;;5.65;3.33;;;31.30;56.70;;;;;;10934711;32;20019;-72
2023/07/08 11:49:30;;;;;;;4.65;2.67;;;31.50;56.20;;;;;;10934179;32;20389;-72
2023/07/08 11:55:56;;;;;;;6.05;3.40;;;31.80;55.70;;;;;;10947652;32;20015;-72
2023/07/08 12:02:17;;;;;;;7.20;4.03;;;32.10;54.40;;;;;;10782107;33;20039;-73
2023/07/08 12:08:19;;;;;;;6.65;3.28;;;32.20;54.00;;;;;;10787066;32;20036;-72
2023/07/08 12:14:23;;;;;;;4.53;2.65;;;32.30;53.60;;;;;;10790588;33;20020;-71
2023/07/08 12:20:31;;;;;;;6.97;4.30;;;32.30;52.80;;;;;;10781888;33;20104;-71
2023/07/08 12:26:34;;;;;;;9.27;4.40;;;32.20;52.60;;;;;;10782271;33;20021;-72
2023/07/08 12:32:36;;;;;;;11.77;4.18;;;32.10;52.00;;;;;;10794010;33;20029;-71
2023/07/08 12:38:41;;;;;;;3.83;2.65;;;32.10;51.70;;;;;;10895200;32;20096;-71
2023/07/08 12:44:44;;;;;;;6.65;3.60;;;32.30;51.80;;;;;;10946014;32;20397;-73
2023/07/08 12:50:46;;;;;;;5.45;3.22;;;32.50;52.10;;;;;;10931810;32;20023;-72
2023/07/08 12:56:48;;;;;;;5.78;3.30;;;32.70;51.50;;;;;;10931987;32;20023;-73
2023/07/08 13:03:03;;;;;;;4.35;2.87;;;32.80;51.30;;;;;;10945338;32;20061;-72
2023/07/08 13:09:35;;;;;;;6.70;4.65;;;32.90;50.80;;;;;;10946155;32;20057;-71
2023/07/08 13:15:41;;;;;;;6.60;3.03;;;33.00;49.20;;;;;;10933179;32;19999;-73
2023/07/08 13:21:44;;;;;;;5.55;3.20;;;32.80;49.60;;;;;;10944680;32;20019;-72
2023/07/08 13:28:23;;;;;;;9.90;3.12;;;32.90;50.00;;;;;;10944197;32;20045;-73
2023/07/08 13:34:25;;;;;;;5.78;3.30;;;32.90;50.00;;;;;;10939922;32;20045;-73
2023/07/08 13:40:29;;;;;;;4.82;3.28;;;32.90;50.00;;;;;;10943717;32;20065;-73
2023/07/08 13:46:38;;;;;;;7.60;3.87;;;32.90;49.70;;;;;;10924985;32;20030;-73
2023/07/08 13:52:44;;;;;;;6.03;3.17;;;33.00;49.90;;;;;;10943428;32;20435;-72
2023/07/08 13:59:24;;;;;;;8.57;4.65;;;32.90;49.60;;;;;;10942959;32;20349;-73
2023/07/08 14:05:26;;;;;;;5.85;3.45;;;32.90;49.50;;;;;;10929623;32;20015;-73
2023/07/08 14:11:28;;;;;;;5.62;4.45;;;32.80;50.00;;;;;;10942719;32;20298;-72
2023/07/08 14:17:32;;;;;;;5.70;3.05;;;32.80;50.90;;;;;;10942581;32;20037;-72
2023/07/08 14:23:34;;;;;;;7.18;4.37;;;32.80;50.00;;;;;;10942478;32;20010;-73
2023/07/08 14:29:36;;;;;;;4.72;2.85;;;32.90;50.10;;;;;;10942086;32;20045;-72
2023/07/08 14:35:39;;;;;;;6.05;3.50;;;32.90;50.20;;;;;;10932354;32;20027;-73
2023/07/08 14:41:54;;;;;;;6.80;3.72;;;32.80;51.00;;;;;;10917212;32;20027;-73
2023/07/08 14:47:56;;;;;;;7.82;3.83;;;32.80;51.40;;;;;;10928256;32;20043;-74
2023/07/08 14:53:58;;;;;;;6.35;4.05;;;32.80;52.20;;;;;;10941661;32;20396;-74
2023/07/08 15:00:00;;;;;;;6.28;3.70;;;32.50;55.40;;;;;;10915300;32;20031;-73
2023/07/08 15:06:08;;;;;;;6.43;3.25;;;32.30;55.90;;;;;;10941477;32;20030;-73
2023/07/08 15:12:12;;;;;;;6.68;3.37;;;32.40;55.10;;;;;;10943684;32;20023;-73
2023/07/08 15:18:16;;;;;;;7.20;4.80;;;32.40;56.70;;;;;;10935494;32;20018;-73
2023/07/08 15:24:21;;;;;;;5.55;2.95;;;32.30;57.60;;;;;;10948679;32;20034;-73
2023/07/08 15:30:37;;;;;;;6.68;4.20;;;32.20;57.80;;;;;;10974635;27;20030;-73
2023/07/08 15:36:39;;;;;;;7.70;3.03;;;32.20;58.50;;;;;;10971674;32;20027;-73
2023/07/08 15:42:44;;;;;;;5.18;3.55;;;32.00;58.90;;;;;;10985682;32;20042;-73
2023/07/08 15:48:46;;;;;;;6.07;3.72;;;32.00;61.60;;;;;;10981005;32;20026;-73
2023/07/08 15:54:48;;;;;;;5.43;2.60;;;32.00;60.00;;;;;;10971737;32;20062;-73
2023/07/08 16:00:50;;;;;;;6.00;3.40;;;32.00;60.90;;;;;;10971652;32;20023;-74
2023/07/08 16:06:52;;;;;;;6.53;3.83;;;32.00;60.90;;;;;;10982808;32;20014;-74
2023/07/08 16:12:56;;;;;;;7.95;3.22;;;32.00;62.10;;;;;;10984594;32;20010;-74
2023/07/08 16:18:58;;;;;;;6.20;2.65;;;31.90;62.30;;;;;;10958636;32;20062;-73
2023/07/08 16:24:59;;;;;;;9.00;4.93;;;32.00;61.20;;;;;;10944811;32;20033;-74
2023/07/08 16:31:03;;;;;;;5.03;2.97;;;32.10;59.30;;;;;;10974044;32;20019;-73
2023/07/08 16:37:05;;;;;;;5.43;3.33;;;32.00;59.80;;;;;;10983844;32;20014;-73
2023/07/08 16:43:23;;;;;;;6.18;3.45;;;32.00;58.80;;;;;;10983613;32;20046;-74
2023/07/08 16:49:25;;;;;;;4.80;2.75;;;31.80;59.50;;;;;;10983908;32;20431;-73
2023/07/08 16:55:28;;;;;;;5.78;2.83;;;31.90;58.90;;;;;;10983316;32;20037;-75
2023/07/08 17:01:31;;;;;;;4.05;2.62;;;31.90;59.70;;;;;;10982792;32;20431;-73
2023/07/08 17:07:34;;;;;;;6.55;3.25;;;31.80;58.80;;;;;;10982851;32;20026;-73
2023/07/08 17:13:40;;;;;;;9.05;3.45;;;31.80;60.60;;;;;;10964071;32;20420;-73
2023/07/08 17:19:48;;;;;;;6.15;3.12;;;31.80;62.00;;;;;;10928615;32;20016;-73
2023/07/08 17:25:53;;;;;;;9.98;3.45;;;31.70;61.60;;;;;;10943675;32;20019;-74
2023/07/08 17:31:55;;;;;;;7.10;2.60;;;31.60;61.60;;;;;;10944133;32;20295;-73
2023/07/08 17:37:57;;;;;;;9.10;3.53;;;31.60;62.50;;;;;;10940365;32;20019;-73
2023/07/08 17:43:59;;;;;;;7.87;3.15;;;31.50;62.30;;;;;;10943912;32;20011;-73
2023/07/08 17:50:01;;;;;;;4.68;2.90;;;31.50;62.00;;;;;;10943632;32;20027;-73
2023/07/08 17:56:03;;;;;;;4.37;3.08;;;31.50;60.80;;;;;;10939445;32;20345;-72
2023/07/08 18:02:16;;;;;;;9.85;3.92;;;32.00;58.90;;;;;;10943120;32;20060;-73
2023/07/08 18:08:18;;;;;;;5.37;2.62;;;32.60;56.70;;;;;;10939497;32;20389;-73
2023/07/08 18:14:20;;;;;;;8.98;3.65;;;31.90;58.50;;;;;;10942820;32;20023;-74
2023/07/08 18:20:34;;;;;;;5.37;2.17;;;31.40;60.20;;;;;;10924954;32;20027;-73
2023/07/08 18:26:36;;;;;;;6.62;2.37;;;31.10;61.80;;;;;;10929114;32;20019;-73
2023/07/08 18:32:39;;;;;;;6.00;2.17;;;30.90;62.90;;;;;;10942236;32;20065;-73
2023/07/08 18:38:41;;;;;;;3.53;1.85;;;30.70;64.10;;;;;;10942190;32;20014;-73
2023/07/08 18:44:43;;;;;;;2.70;1.55;;;30.50;64.60;;;;;;10941874;32;20015;-72
2023/07/08 18:50:54;;;;;;;3.87;2.00;;;30.40;65.20;;;;;;10941456;32;20041;-72
2023/07/08 18:56:56;;;;;;;3.40;1.85;;;30.30;65.00;;;;;;10941787;32;20015;-72
2023/07/08 19:03:00;;;;;;;3.92;2.28;;;30.30;65.70;;;;;;10928015;32;20081;-72
2023/07/08 19:09:03;;;;;;;3.08;1.45;;;30.20;66.30;;;;;;10928073;32;20420;-72
2023/07/08 19:15:18;;;;;;;6.07;1.50;;;30.10;66.70;;;;;;10927693;32;20031;-72
2023/07/08 19:21:25;;;;;;;6.47;1.77;;;30.10;67.30;;;;;;10941262;32;20033;-72
2023/07/08 19:27:27;;;;;;;3.10;1.98;;;30.00;68.40;;;;;;10940431;32;20023;-72
2023/07/08 19:33:32;;;;;;;3.53;1.73;;;29.90;69.30;;;;;;10940843;32;20041;-72
2023/07/08 19:39:34;;;;;;;6.12;1.85;;;29.80;69.70;;;;;;10941051;32;20049;-72
2023/07/08 19:45:36;;;;;;;4.18;2.33;;;29.80;69.60;;;;;;10940894;32;20381;-72
2023/07/08 19:51:38;;;;;;;2.45;1.60;;;29.70;69.80;;;;;;10927229;32;20070;-72
2023/07/08 19:57:49;;;;;;;2.40;1.42;;;29.60;70.00;;;;;;10942038;32;20011;-72
2023/07/08 20:03:51;;;;;;;3.17;1.65;;;29.60;70.10;;;;;;10947276;32;20011;-72
2023/07/08 20:09:53;;;;;;;2.03;1.20;;;29.50;70.90;;;;;;10958135;32;20018;-72
2023/07/08 20:15:57;;;;;;;2.92;1.60;;;29.40;71.00;;;;;;10984849;32;20061;-72
2023/07/08 20:21:59;;;;;;;2.55;1.50;;;29.30;71.40;;;;;;10971067;32;20401;-72
2023/07/08 20:28:01;;;;;;;2.12;1.45;;;29.30;72.20;;;;;;10984267;32;20026;-72
2023/07/08 20:34:03;;;;;;;3.30;1.70;;;29.20;72.10;;;;;;10970025;32;20340;-72
2023/07/08 20:40:17;;;;;;;2.97;1.67;;;29.10;72.20;;;;;;10983807;32;20006;-72
2023/07/08 20:46:23;;;;;;;3.83;2.08;;;29.00;72.40;;;;;;10969841;32;20066;-72
2023/07/08 20:52:25;;;;;;;2.10;1.25;;;28.90;72.60;;;;;;10982540;32;20447;-72
2023/07/08 20:58:28;;;;;;;4.62;2.42;;;28.90;72.80;;;;;;10983277;32;20037;-72
2023/07/08 21:04:31;;;;;;;3.50;1.85;;;28.80;74.20;;;;;;10969592;32;20018;-72
2023/07/08 21:10:34;;;;;;;8.85;1.87;;;28.80;74.60;;;;;;10968884;32;20357;-72
2023/07/08 21:16:36;;;;;;;3.83;1.90;;;28.70;74.40;;;;;;10982606;32;20042;-72
2023/07/08 21:22:38;;;;;;;3.35;1.87;;;28.60;74.30;;;;;;10968660;32;20091;-72
2023/07/08 21:28:43;;;;;;;2.55;1.70;;;28.50;74.40;;;;;;10982197;32;20333;-71
2023/07/08 21:34:45;;;;;;;3.17;1.48;;;28.40;75.60;;;;;;10977669;32;20027;-71
2023/07/08 21:40:52;;;;;;;4.10;2.67;;;28.30;75.70;;;;;;10981592;32;20019;-71
2023/07/08 21:46:54;;;;;;;5.10;1.97;;;28.30;75.50;;;;;;10981502;32;20396;-72
2023/07/08 21:53:00;;;;;;;6.57;3.03;;;28.30;75.60;;;;;;10967727;32;20145;-72
2023/07/08 21:59:02;;;;;;;4.25;2.67;;;28.30;75.50;;;;;;10981050;32;20045;-72
2023/07/08 22:05:04;;;;;;;3.97;2.12;;;28.30;75.30;;;;;;10980532;32;20027;-71
2023/07/08 22:11:16;;;;;;;3.55;2.35;;;28.10;75.40;;;;;;10980539;32;20018;-72
2023/07/08 22:17:19;;;;;;;3.17;1.95;;;28.00;75.60;;;;;;10980313;32;20073;-71
2023/07/08 22:23:23;;;;;;;3.80;2.45;;;28.00;75.60;;;;;;10979483;32;20026;-71
2023/07/08 22:29:25;;;;;;;3.12;1.90;;;27.90;75.60;;;;;;10979942;32;20023;-72
2023/07/08 22:35:30;;;;;;;3.40;2.10;;;27.90;75.50;;;;;;10979997;32;20031;-72
2023/07/08 22:41:40;;;;;;;1.90;1.48;;;27.70;75.80;;;;;;10953582;32;20400;-72
2023/07/08 22:47:44;;;;;;;4.60;2.20;;;27.70;76.00;;;;;;10979667;32;20352;-71
2023/07/08 22:54:03;;;;;;;6.72;2.50;;;27.70;76.60;;;;;;10979375;32;20027;-72
2023/07/08 23:00:08;;;;;;;3.65;2.15;;;27.60;76.40;;;;;;10979372;32;20015;-72
2023/07/08 23:06:13;;;;;;;2.15;1.80;;;27.40;76.60;;;;;;10979303;32;20018;-72
2023/07/08 23:12:15;;;;;;;4.95;2.75;;;27.30;76.80;;;;;;10975239;32;20030;-72
2023/07/08 23:18:18;;;;;;;7.68;2.83;;;27.40;77.30;;;;;;10979156;32;20041;-72
2023/07/08 23:24:43;;;;;;;3.92;1.75;;;27.40;77.30;;;;;;10978883;32;20023;-72
2023/07/08 23:30:45;;;;;;;2.00;1.62;;;27.30;77.10;;;;;;10930092;27;20436;-72
2023/07/08 23:36:51;;;;;;;3.53;2.17;;;27.30;77.20;;;;;;10947952;32;20054;-72
2023/07/08 23:42:54;;;;;;;4.03;2.00;;;27.30;77.00;;;;;;10948367;32;20023;-72
2023/07/08 23:49:03;;;;;;;3.25;1.87;;;27.20;77.10;;;;;;10948150;32;20326;-72
2023/07/08 23:55:06;;;;;;;;;;;27.00;77.20;;;;;;10948213;32;20010;-72
